sensor_id;sensor_type;location;lat;lon;timestamp;P1;durP1;ratioP1;P2;durP2;ratioP2
11541;SDS011;5827;49.482;7.716;2023-03-01T00:00:47;11.63;;;8.70;;
11541;SDS011;5827;49.482;7.716;2023-03-01T00:02:49;12.23;;;8.67;;
11541;SDS011;5827;49.482;7.716;2023-03-01T00:04:50;10.83;;;8.23;;
11541;SDS011;5827;49.482;7.716;2023-03-01T00:06:52;15.17;;;8.80;;
11541;SDS011;5827;49.482;7.716;2023-03-01T00:08:53;14.47;;;9.13;;
11541;SDS011;5827;49.482;7.716;2023-03-01T00:11:02;10.87;;;8.57;;
11541;SDS011;5827;49.482;7.716;2023-03-01T00:13:04;13.53;;;9.80;;
11541;SDS011;5827;49.482;7.716;2023-03-01T00:15:08;13.93;;;9.47;;
11541;SDS011;5827;49.482;7.716;2023-03-01T00:17:09;11.73;;;9.13;;
11541;SDS011;5827;49.482;7.716;2023-03-01T00:19:12;11.97;;;9.47;;
11541;SDS011;5827;49.482;7.716;2023-03-01T00:21:15;14.47;;;9.83;;
11541;SDS011;5827;49.482;7.716;2023-03-01T00:23:16;11.83;;;9.03;;
11541;SDS011;5827;49.482;7.716;2023-03-01T00:25:18;14.13;;;9.67;;
11541;SDS011;5827;49.482;7.716;2023-03-01T00:27:19;14.80;;;9.90;;
11541;SDS011;5827;49.482;7.716;2023-03-01T00:29:21;12.10;;;9.20;;
11541;SDS011;5827;49.482;7.716;2023-03-01T00:31:25;14.97;;;9.60;;
11541;SDS011;5827;49.482;7.716;2023-03-01T00:33:27;14.63;;;9.67;;
11541;SDS011;5827;49.482;7.716;2023-03-01T00:35:29;13.20;;;10.03;;
11541;SDS011;5827;49.482;7.716;2023-03-01T00:37:30;11.53;;;8.87;;
11541;SDS011;5827;49.482;7.716;2023-03-01T00:39:32;13.80;;;9.57;;
11541;SDS011;5827;49.482;7.716;2023-03-01T00:41:33;13.30;;;9.83;;
11541;SDS011;5827;49.482;7.716;2023-03-01T00:43:35;13.77;;;9.60;;
11541;SDS011;5827;49.482;7.716;2023-03-01T00:45:37;12.43;;;9.20;;
11541;SDS011;5827;49.482;7.716;2023-03-01T00:47:40;12.87;;;9.20;;
11541;SDS011;5827;49.482;7.716;2023-03-01T00:49:41;12.87;;;10.67;;
11541;SDS011;5827;49.482;7.716;2023-03-01T00:51:43;14.23;;;9.43;;
11541;SDS011;5827;49.482;7.716;2023-03-01T00:53:44;14.47;;;9.63;;
11541;SDS011;5827;49.482;7.716;2023-03-01T00:55:46;13.47;;;9.30;;
11541;SDS011;5827;49.482;7.716;2023-03-01T00:57:48;11.37;;;8.93;;
11541;SDS011;5827;49.482;7.716;2023-03-01T00:59:50;12.50;;;9.67;;
11541;SDS011;5827;49.482;7.716;2023-03-01T01:01:52;13.57;;;9.03;;
11541;SDS011;5827;49.482;7.716;2023-03-01T01:03:55;12.97;;;9.00;;
11541;SDS011;5827;49.482;7.716;2023-03-01T01:05:58;15.40;;;9.93;;
11541;SDS011;5827;49.482;7.716;2023-03-01T01:08:09;14.30;;;9.13;;
11541;SDS011;5827;49.482;7.716;2023-03-01T01:10:10;14.53;;;9.90;;
11541;SDS011;5827;49.482;7.716;2023-03-01T01:12:17;14.17;;;9.27;;
11541;SDS011;5827;49.482;7.716;2023-03-01T01:14:18;14.33;;;9.97;;
11541;SDS011;5827;49.482;7.716;2023-03-01T01:16:21;12.90;;;9.67;;
11541;SDS011;5827;49.482;7.716;2023-03-01T01:18:24;13.70;;;9.20;;
11541;SDS011;5827;49.482;7.716;2023-03-01T01:20:27;13.23;;;9.90;;
11541;SDS011;5827;49.482;7.716;2023-03-01T01:22:29;14.37;;;9.77;;
11541;SDS011;5827;49.482;7.716;2023-03-01T01:24:31;13.73;;;10.00;;
11541;SDS011;5827;49.482;7.716;2023-03-01T01:26:33;15.80;;;10.67;;
11541;SDS011;5827;49.482;7.716;2023-03-01T01:28:35;12.67;;;10.03;;
11541;SDS011;5827;49.482;7.716;2023-03-01T01:30:37;13.53;;;9.70;;
11541;SDS011;5827;49.482;7.716;2023-03-01T01:32:38;13.33;;;10.17;;
11541;SDS011;5827;49.482;7.716;2023-03-01T01:34:40;16.67;;;10.33;;
11541;SDS011;5827;49.482;7.716;2023-03-01T01:36:43;15.80;;;10.50;;
11541;SDS011;5827;49.482;7.716;2023-03-01T01:38:45;15.53;;;9.70;;
11541;SDS011;5827;49.482;7.716;2023-03-01T01:40:47;16.37;;;10.53;;
11541;SDS011;5827;49.482;7.716;2023-03-01T01:42:49;14.60;;;10.57;;
11541;SDS011;5827;49.482;7.716;2023-03-01T01:47:26;15.30;;;10.60;;
11541;SDS011;5827;49.482;7.716;2023-03-01T01:49:31;15.63;;;10.50;;
11541;SDS011;5827;49.482;7.716;2023-03-01T01:51:37;20.20;;;11.03;;
11541;SDS011;5827;49.482;7.716;2023-03-01T01:53:45;14.83;;;10.60;;
11541;SDS011;5827;49.482;7.716;2023-03-01T01:55:53;15.33;;;10.63;;
11541;SDS011;5827;49.482;7.716;2023-03-01T01:58:00;14.63;;;10.47;;
11541;SDS011;5827;49.482;7.716;2023-03-01T02:00:06;15.47;;;10.43;;
11541;SDS011;5827;49.482;7.716;2023-03-01T02:02:10;17.17;;;10.97;;
11541;SDS011;5827;49.482;7.716;2023-03-01T02:04:13;15.37;;;11.37;;
11541;SDS011;5827;49.482;7.716;2023-03-01T02:06:17;16.87;;;11.23;;
11541;SDS011;5827;49.482;7.716;2023-03-01T02:08:24;16.57;;;11.77;;
11541;SDS011;5827;49.482;7.716;2023-03-01T02:10:33;17.33;;;11.60;;
11541;SDS011;5827;49.482;7.716;2023-03-01T02:12:35;16.93;;;11.70;;
11541;SDS011;5827;49.482;7.716;2023-03-01T02:14:39;15.70;;;11.13;;
11541;SDS011;5827;49.482;7.716;2023-03-01T02:16:41;17.90;;;11.67;;
11541;SDS011;5827;49.482;7.716;2023-03-01T02:18:42;19.03;;;12.73;;
11541;SDS011;5827;49.482;7.716;2023-03-01T02:20:48;15.87;;;10.97;;
11541;SDS011;5827;49.482;7.716;2023-03-01T02:22:59;16.73;;;11.10;;
11541;SDS011;5827;49.482;7.716;2023-03-01T02:25:04;18.67;;;12.70;;
11541;SDS011;5827;49.482;7.716;2023-03-01T02:27:12;17.83;;;11.47;;
11541;SDS011;5827;49.482;7.716;2023-03-01T02:29:15;17.43;;;11.23;;
11541;SDS011;5827;49.482;7.716;2023-03-01T02:31:18;15.70;;;10.67;;
11541;SDS011;5827;49.482;7.716;2023-03-01T02:33:38;16.30;;;11.03;;
11541;SDS011;5827;49.482;7.716;2023-03-01T02:35:41;16.83;;;10.97;;
11541;SDS011;5827;49.482;7.716;2023-03-01T02:37:42;16.50;;;11.73;;
11541;SDS011;5827;49.482;7.716;2023-03-01T02:39:46;17.63;;;11.87;;
11541;SDS011;5827;49.482;7.716;2023-03-01T02:41:51;15.90;;;11.40;;
11541;SDS011;5827;49.482;7.716;2023-03-01T02:43:53;17.33;;;11.63;;
11541;SDS011;5827;49.482;7.716;2023-03-01T02:46:02;17.60;;;11.77;;
11541;SDS011;5827;49.482;7.716;2023-03-01T02:48:04;16.93;;;11.70;;
11541;SDS011;5827;49.482;7.716;2023-03-01T02:50:11;16.57;;;12.00;;
11541;SDS011;5827;49.482;7.716;2023-03-01T02:52:26;15.27;;;10.53;;
11541;SDS011;5827;49.482;7.716;2023-03-01T02:54:43;16.23;;;10.97;;
11541;SDS011;5827;49.482;7.716;2023-03-01T02:56:49;16.80;;;11.90;;
11541;SDS011;5827;49.482;7.716;2023-03-01T02:58:51;15.77;;;11.73;;
11541;SDS011;5827;49.482;7.716;2023-03-01T03:00:53;19.10;;;11.90;;
11541;SDS011;5827;49.482;7.716;2023-03-01T03:02:56;17.30;;;12.07;;
11541;SDS011;5827;49.482;7.716;2023-03-01T03:04:57;16.67;;;11.17;;
11541;SDS011;5827;49.482;7.716;2023-03-01T03:07:00;17.30;;;12.23;;
11541;SDS011;5827;49.482;7.716;2023-03-01T03:09:02;18.87;;;11.90;;
11541;SDS011;5827;49.482;7.716;2023-03-01T03:11:04;16.73;;;11.67;;
11541;SDS011;5827;49.482;7.716;2023-03-01T03:13:06;17.70;;;11.73;;
11541;SDS011;5827;49.482;7.716;2023-03-01T03:15:09;15.90;;;11.63;;
11541;SDS011;5827;49.482;7.716;2023-03-01T03:17:12;16.97;;;11.27;;
11541;SDS011;5827;49.482;7.716;2023-03-01T03:19:15;17.23;;;11.73;;
11541;SDS011;5827;49.482;7.716;2023-03-01T03:21:17;16.33;;;11.23;;
11541;SDS011;5827;49.482;7.716;2023-03-01T03:23:19;15.93;;;11.63;;
11541;SDS011;5827;49.482;7.716;2023-03-01T03:25:22;15.93;;;12.03;;
11541;SDS011;5827;49.482;7.716;2023-03-01T03:27:23;16.83;;;11.60;;
11541;SDS011;5827;49.482;7.716;2023-03-01T03:29:25;15.97;;;11.13;;
11541;SDS011;5827;49.482;7.716;2023-03-01T03:31:27;18.03;;;11.83;;
11541;SDS011;5827;49.482;7.716;2023-03-01T03:33:28;19.07;;;12.77;;
11541;SDS011;5827;49.482;7.716;2023-03-01T03:35:32;15.70;;;11.37;;
11541;SDS011;5827;49.482;7.716;2023-03-01T03:37:35;14.87;;;11.17;;
11541;SDS011;5827;49.482;7.716;2023-03-01T03:39:55;16.47;;;11.77;;
11541;SDS011;5827;49.482;7.716;2023-03-01T03:41:57;16.60;;;11.23;;
11541;SDS011;5827;49.482;7.716;2023-03-01T03:43:59;16.20;;;11.67;;
11541;SDS011;5827;49.482;7.716;2023-03-01T03:46:00;18.20;;;12.00;;
11541;SDS011;5827;49.482;7.716;2023-03-01T03:48:06;17.63;;;12.13;;
11541;SDS011;5827;49.482;7.716;2023-03-01T03:50:10;16.10;;;11.40;;
11541;SDS011;5827;49.482;7.716;2023-03-01T03:52:15;16.47;;;12.17;;
11541;SDS011;5827;49.482;7.716;2023-03-01T03:54:16;16.37;;;12.13;;
11541;SDS011;5827;49.482;7.716;2023-03-01T03:56:18;17.33;;;11.83;;
11541;SDS011;5827;49.482;7.716;2023-03-01T03:58:20;16.67;;;11.67;;
11541;SDS011;5827;49.482;7.716;2023-03-01T04:00:25;17.97;;;11.93;;
11541;SDS011;5827;49.482;7.716;2023-03-01T04:02:26;18.90;;;12.37;;
11541;SDS011;5827;49.482;7.716;2023-03-01T04:04:28;18.93;;;12.10;;
11541;SDS011;5827;49.482;7.716;2023-03-01T04:06:30;20.17;;;13.03;;
11541;SDS011;5827;49.482;7.716;2023-03-01T04:08:33;19.27;;;12.40;;
11541;SDS011;5827;49.482;7.716;2023-03-01T04:10:35;17.10;;;11.80;;
11541;SDS011;5827;49.482;7.716;2023-03-01T04:12:38;18.73;;;12.33;;
11541;SDS011;5827;49.482;7.716;2023-03-01T04:14:39;23.17;;;12.87;;
11541;SDS011;5827;49.482;7.716;2023-03-01T04:16:41;19.87;;;12.63;;
11541;SDS011;5827;49.482;7.716;2023-03-01T04:18:43;17.13;;;12.47;;
11541;SDS011;5827;49.482;7.716;2023-03-01T04:20:45;17.50;;;12.27;;
11541;SDS011;5827;49.482;7.716;2023-03-01T04:22:47;18.20;;;12.43;;
11541;SDS011;5827;49.482;7.716;2023-03-01T04:24:50;19.47;;;12.93;;
11541;SDS011;5827;49.482;7.716;2023-03-01T04:26:51;21.23;;;13.03;;
11541;SDS011;5827;49.482;7.716;2023-03-01T04:28:53;21.87;;;13.30;;
11541;SDS011;5827;49.482;7.716;2023-03-01T04:30:55;18.90;;;12.70;;
11541;SDS011;5827;49.482;7.716;2023-03-01T04:32:57;17.90;;;12.73;;
11541;SDS011;5827;49.482;7.716;2023-03-01T04:34:59;19.00;;;12.63;;
11541;SDS011;5827;49.482;7.716;2023-03-01T04:37:00;20.50;;;13.00;;
11541;SDS011;5827;49.482;7.716;2023-03-01T04:39:02;22.27;;;13.63;;
11541;SDS011;5827;49.482;7.716;2023-03-01T04:41:13;18.97;;;13.33;;
11541;SDS011;5827;49.482;7.716;2023-03-01T04:43:16;21.33;;;13.43;;
11541;SDS011;5827;49.482;7.716;2023-03-01T04:45:18;22.13;;;13.50;;
11541;SDS011;5827;49.482;7.716;2023-03-01T04:47:19;18.97;;;12.77;;
11541;SDS011;5827;49.482;7.716;2023-03-01T04:49:21;20.57;;;13.20;;
11541;SDS011;5827;49.482;7.716;2023-03-01T04:51:22;20.57;;;13.40;;
11541;SDS011;5827;49.482;7.716;2023-03-01T04:53:24;18.83;;;13.23;;
11541;SDS011;5827;49.482;7.716;2023-03-01T04:55:26;20.63;;;14.13;;
11541;SDS011;5827;49.482;7.716;2023-03-01T04:57:29;20.90;;;13.87;;
11541;SDS011;5827;49.482;7.716;2023-03-01T04:59:30;19.90;;;13.77;;
11541;SDS011;5827;49.482;7.716;2023-03-01T05:01:32;18.43;;;13.13;;
11541;SDS011;5827;49.482;7.716;2023-03-01T05:03:35;20.00;;;13.50;;
11541;SDS011;5827;49.482;7.716;2023-03-01T05:05:37;21.60;;;13.53;;
11541;SDS011;5827;49.482;7.716;2023-03-01T05:07:39;20.67;;;13.27;;
11541;SDS011;5827;49.482;7.716;2023-03-01T05:09:40;20.53;;;13.80;;
11541;SDS011;5827;49.482;7.716;2023-03-01T05:11:42;19.83;;;13.77;;
11541;SDS011;5827;49.482;7.716;2023-03-01T05:13:45;24.50;;;14.93;;
11541;SDS011;5827;49.482;7.716;2023-03-01T05:15:47;22.67;;;14.63;;
11541;SDS011;5827;49.482;7.716;2023-03-01T05:17:50;21.63;;;13.90;;
11541;SDS011;5827;49.482;7.716;2023-03-01T05:19:51;22.33;;;14.50;;
11541;SDS011;5827;49.482;7.716;2023-03-01T05:21:55;20.73;;;13.83;;
11541;SDS011;5827;49.482;7.716;2023-03-01T05:24:05;21.17;;;14.20;;
11541;SDS011;5827;49.482;7.716;2023-03-01T05:26:11;23.63;;;14.90;;
11541;SDS011;5827;49.482;7.716;2023-03-01T05:28:13;19.93;;;13.90;;
11541;SDS011;5827;49.482;7.716;2023-03-01T05:30:16;22.13;;;13.87;;
11541;SDS011;5827;49.482;7.716;2023-03-01T05:32:18;22.50;;;15.00;;
11541;SDS011;5827;49.482;7.716;2023-03-01T05:34:22;23.33;;;15.17;;
11541;SDS011;5827;49.482;7.716;2023-03-01T05:36:25;20.17;;;14.80;;
11541;SDS011;5827;49.482;7.716;2023-03-01T05:38:27;22.57;;;14.87;;
11541;SDS011;5827;49.482;7.716;2023-03-01T05:40:28;26.23;;;15.50;;
11541;SDS011;5827;49.482;7.716;2023-03-01T05:42:29;23.53;;;15.13;;
11541;SDS011;5827;49.482;7.716;2023-03-01T05:44:31;22.03;;;14.20;;
11541;SDS011;5827;49.482;7.716;2023-03-01T05:46:34;23.80;;;14.63;;
11541;SDS011;5827;49.482;7.716;2023-03-01T05:48:35;21.03;;;14.33;;
11541;SDS011;5827;49.482;7.716;2023-03-01T05:50:38;19.47;;;13.50;;
11541;SDS011;5827;49.482;7.716;2023-03-01T05:52:41;21.83;;;15.30;;
11541;SDS011;5827;49.482;7.716;2023-03-01T05:54:42;26.17;;;15.30;;
11541;SDS011;5827;49.482;7.716;2023-03-01T05:56:44;20.77;;;13.80;;
11541;SDS011;5827;49.482;7.716;2023-03-01T05:58:47;22.60;;;14.63;;
11541;SDS011;5827;49.482;7.716;2023-03-01T06:00:49;25.00;;;15.13;;
11541;SDS011;5827;49.482;7.716;2023-03-01T06:02:52;23.03;;;14.60;;
11541;SDS011;5827;49.482;7.716;2023-03-01T06:04:54;25.53;;;15.87;;
11541;SDS011;5827;49.482;7.716;2023-03-01T06:06:56;23.43;;;14.87;;
11541;SDS011;5827;49.482;7.716;2023-03-01T06:08:57;24.03;;;14.47;;
11541;SDS011;5827;49.482;7.716;2023-03-01T06:10:58;22.63;;;16.07;;
11541;SDS011;5827;49.482;7.716;2023-03-01T06:13:00;23.70;;;15.50;;
11541;SDS011;5827;49.482;7.716;2023-03-01T06:15:02;25.10;;;15.40;;
11541;SDS011;5827;49.482;7.716;2023-03-01T06:17:04;26.33;;;17.00;;
11541;SDS011;5827;49.482;7.716;2023-03-01T06:19:07;29.83;;;17.57;;
11541;SDS011;5827;49.482;7.716;2023-03-01T06:21:09;28.70;;;16.73;;
11541;SDS011;5827;49.482;7.716;2023-03-01T06:23:10;24.73;;;15.00;;
11541;SDS011;5827;49.482;7.716;2023-03-01T06:25:12;24.97;;;15.50;;
11541;SDS011;5827;49.482;7.716;2023-03-01T06:27:15;23.07;;;15.43;;
11541;SDS011;5827;49.482;7.716;2023-03-01T06:29:17;23.80;;;15.57;;
11541;SDS011;5827;49.482;7.716;2023-03-01T06:31:18;24.77;;;16.00;;
11541;SDS011;5827;49.482;7.716;2023-03-01T06:33:20;24.30;;;15.47;;
11541;SDS011;5827;49.482;7.716;2023-03-01T06:35:25;25.83;;;16.47;;
11541;SDS011;5827;49.482;7.716;2023-03-01T06:37:29;25.23;;;15.73;;
11541;SDS011;5827;49.482;7.716;2023-03-01T06:39:31;24.33;;;15.97;;
11541;SDS011;5827;49.482;7.716;2023-03-01T06:41:33;24.93;;;16.50;;
11541;SDS011;5827;49.482;7.716;2023-03-01T06:43:34;27.33;;;17.17;;
11541;SDS011;5827;49.482;7.716;2023-03-01T06:45:36;23.93;;;16.57;;
11541;SDS011;5827;49.482;7.716;2023-03-01T06:47:38;26.87;;;15.60;;
11541;SDS011;5827;49.482;7.716;2023-03-01T06:49:40;25.07;;;15.63;;
11541;SDS011;5827;49.482;7.716;2023-03-01T06:51:43;25.83;;;16.70;;
11541;SDS011;5827;49.482;7.716;2023-03-01T06:53:45;25.53;;;15.27;;
11541;SDS011;5827;49.482;7.716;2023-03-01T06:55:47;20.57;;;14.53;;
11541;SDS011;5827;49.482;7.716;2023-03-01T06:57:48;23.93;;;16.10;;
11541;SDS011;5827;49.482;7.716;2023-03-01T06:59:50;24.07;;;16.30;;
11541;SDS011;5827;49.482;7.716;2023-03-01T07:01:51;25.37;;;15.07;;
11541;SDS011;5827;49.482;7.716;2023-03-01T07:03:53;24.33;;;15.40;;
11541;SDS011;5827;49.482;7.716;2023-03-01T07:05:54;22.00;;;14.07;;
11541;SDS011;5827;49.482;7.716;2023-03-01T07:07:57;22.23;;;15.27;;
11541;SDS011;5827;49.482;7.716;2023-03-01T07:09:58;25.60;;;14.57;;
11541;SDS011;5827;49.482;7.716;2023-03-01T07:12:00;23.13;;;16.13;;
11541;SDS011;5827;49.482;7.716;2023-03-01T07:14:02;23.07;;;15.47;;
11541;SDS011;5827;49.482;7.716;2023-03-01T07:16:04;21.33;;;14.40;;
11541;SDS011;5827;49.482;7.716;2023-03-01T07:18:06;21.60;;;15.43;;
11541;SDS011;5827;49.482;7.716;2023-03-01T07:20:08;21.93;;;15.43;;
11541;SDS011;5827;49.482;7.716;2023-03-01T07:22:10;21.37;;;14.53;;
11541;SDS011;5827;49.482;7.716;2023-03-01T07:24:13;21.67;;;14.40;;
11541;SDS011;5827;49.482;7.716;2023-03-01T07:26:15;22.87;;;13.77;;
11541;SDS011;5827;49.482;7.716;2023-03-01T07:28:16;20.90;;;14.23;;
11541;SDS011;5827;49.482;7.716;2023-03-01T07:30:18;23.67;;;14.93;;
11541;SDS011;5827;49.482;7.716;2023-03-01T07:32:19;21.87;;;14.03;;
11541;SDS011;5827;49.482;7.716;2023-03-01T07:34:21;21.50;;;13.83;;
11541;SDS011;5827;49.482;7.716;2023-03-01T07:36:23;24.33;;;14.97;;
11541;SDS011;5827;49.482;7.716;2023-03-01T07:38:25;21.03;;;14.30;;
11541;SDS011;5827;49.482;7.716;2023-03-01T07:40:28;20.90;;;14.40;;
11541;SDS011;5827;49.482;7.716;2023-03-01T07:42:30;23.33;;;15.37;;
11541;SDS011;5827;49.482;7.716;2023-03-01T07:44:31;25.10;;;14.87;;
11541;SDS011;5827;49.482;7.716;2023-03-01T07:46:33;21.47;;;14.80;;
11541;SDS011;5827;49.482;7.716;2023-03-01T07:48:35;20.83;;;14.53;;
11541;SDS011;5827;49.482;7.716;2023-03-01T07:50:36;23.00;;;14.83;;
11541;SDS011;5827;49.482;7.716;2023-03-01T07:52:38;22.23;;;14.93;;
11541;SDS011;5827;49.482;7.716;2023-03-01T07:54:42;23.10;;;15.27;;
11541;SDS011;5827;49.482;7.716;2023-03-01T07:56:45;23.33;;;15.13;;
11541;SDS011;5827;49.482;7.716;2023-03-01T07:58:46;21.80;;;14.30;;
11541;SDS011;5827;49.482;7.716;2023-03-01T08:00:48;20.50;;;14.27;;
11541;SDS011;5827;49.482;7.716;2023-03-01T08:02:50;20.77;;;14.10;;
11541;SDS011;5827;49.482;7.716;2023-03-01T08:04:51;23.23;;;14.80;;
11541;SDS011;5827;49.482;7.716;2023-03-01T08:06:53;22.63;;;14.50;;
11541;SDS011;5827;49.482;7.716;2023-03-01T08:08:55;24.20;;;14.67;;
11541;SDS011;5827;49.482;7.716;2023-03-01T08:10:56;20.60;;;13.57;;
11541;SDS011;5827;49.482;7.716;2023-03-01T08:13:00;24.13;;;15.60;;
11541;SDS011;5827;49.482;7.716;2023-03-01T08:15:01;23.50;;;15.77;;
11541;SDS011;5827;49.482;7.716;2023-03-01T08:17:03;23.27;;;14.43;;
11541;SDS011;5827;49.482;7.716;2023-03-01T08:19:05;22.67;;;15.53;;
11541;SDS011;5827;49.482;7.716;2023-03-01T08:21:07;26.73;;;15.40;;
11541;SDS011;5827;49.482;7.716;2023-03-01T08:23:10;21.60;;;14.50;;
11541;SDS011;5827;49.482;7.716;2023-03-01T08:25:11;21.53;;;14.07;;
11541;SDS011;5827;49.482;7.716;2023-03-01T08:27:14;18.93;;;13.83;;
11541;SDS011;5827;49.482;7.716;2023-03-01T08:29:17;22.70;;;14.60;;
11541;SDS011;5827;49.482;7.716;2023-03-01T08:31:20;22.07;;;15.30;;
11541;SDS011;5827;49.482;7.716;2023-03-01T08:33:23;22.33;;;14.63;;
11541;SDS011;5827;49.482;7.716;2023-03-01T08:35:25;23.23;;;14.67;;
11541;SDS011;5827;49.482;7.716;2023-03-01T08:37:27;20.63;;;14.90;;
11541;SDS011;5827;49.482;7.716;2023-03-01T08:39:30;21.60;;;14.33;;
11541;SDS011;5827;49.482;7.716;2023-03-01T08:41:32;21.50;;;14.77;;
11541;SDS011;5827;49.482;7.716;2023-03-01T08:43:34;20.90;;;14.03;;
11541;SDS011;5827;49.482;7.716;2023-03-01T08:45:37;20.37;;;13.67;;
11541;SDS011;5827;49.482;7.716;2023-03-01T08:47:38;20.20;;;13.17;;
11541;SDS011;5827;49.482;7.716;2023-03-01T08:49:40;22.17;;;15.03;;
11541;SDS011;5827;49.482;7.716;2023-03-01T08:51:41;19.57;;;14.13;;
11541;SDS011;5827;49.482;7.716;2023-03-01T08:53:43;22.80;;;14.47;;
11541;SDS011;5827;49.482;7.716;2023-03-01T08:55:45;22.83;;;14.73;;
11541;SDS011;5827;49.482;7.716;2023-03-01T08:57:46;23.63;;;14.77;;
11541;SDS011;5827;49.482;7.716;2023-03-01T08:59:48;21.50;;;14.37;;
11541;SDS011;5827;49.482;7.716;2023-03-01T09:01:50;21.20;;;15.40;;
11541;SDS011;5827;49.482;7.716;2023-03-01T09:03:53;23.87;;;14.87;;
11541;SDS011;5827;49.482;7.716;2023-03-01T09:05:59;22.97;;;15.30;;
11541;SDS011;5827;49.482;7.716;2023-03-01T09:08:01;21.43;;;14.47;;
11541;SDS011;5827;49.482;7.716;2023-03-01T09:10:03;22.03;;;14.87;;
11541;SDS011;5827;49.482;7.716;2023-03-01T09:12:05;21.33;;;15.27;;
11541;SDS011;5827;49.482;7.716;2023-03-01T09:14:07;21.47;;;14.87;;
11541;SDS011;5827;49.482;7.716;2023-03-01T09:16:09;22.50;;;14.10;;
11541;SDS011;5827;49.482;7.716;2023-03-01T09:18:13;22.93;;;16.33;;
11541;SDS011;5827;49.482;7.716;2023-03-01T09:20:15;29.33;;;15.57;;
11541;SDS011;5827;49.482;7.716;2023-03-01T09:22:17;20.77;;;14.87;;
11541;SDS011;5827;49.482;7.716;2023-03-01T09:24:19;21.90;;;14.57;;
11541;SDS011;5827;49.482;7.716;2023-03-01T09:26:23;22.97;;;14.87;;
11541;SDS011;5827;49.482;7.716;2023-03-01T09:28:25;20.83;;;14.73;;
11541;SDS011;5827;49.482;7.716;2023-03-01T09:30:26;20.97;;;14.27;;
11541;SDS011;5827;49.482;7.716;2023-03-01T09:32:29;25.17;;;14.57;;
11541;SDS011;5827;49.482;7.716;2023-03-01T09:34:32;21.23;;;15.20;;
11541;SDS011;5827;49.482;7.716;2023-03-01T09:36:54;23.10;;;14.33;;
11541;SDS011;5827;49.482;7.716;2023-03-01T09:38:55;19.87;;;14.23;;
11541;SDS011;5827;49.482;7.716;2023-03-01T09:40:59;24.17;;;15.30;;
11541;SDS011;5827;49.482;7.716;2023-03-01T09:43:02;22.80;;;14.97;;
11541;SDS011;5827;49.482;7.716;2023-03-01T09:45:10;19.83;;;14.57;;
11541;SDS011;5827;49.482;7.716;2023-03-01T09:47:19;19.27;;;14.53;;
11541;SDS011;5827;49.482;7.716;2023-03-01T09:49:23;19.77;;;13.23;;
11541;SDS011;5827;49.482;7.716;2023-03-01T09:51:29;24.27;;;15.87;;
11541;SDS011;5827;49.482;7.716;2023-03-01T09:53:32;20.13;;;13.07;;
11541;SDS011;5827;49.482;7.716;2023-03-01T09:55:37;21.47;;;15.00;;
11541;SDS011;5827;49.482;7.716;2023-03-01T09:57:46;21.07;;;15.00;;
11541;SDS011;5827;49.482;7.716;2023-03-01T10:00:01;21.80;;;14.27;;
11541;SDS011;5827;49.482;7.716;2023-03-01T10:02:21;20.50;;;14.50;;
11541;SDS011;5827;49.482;7.716;2023-03-01T10:04:28;21.97;;;15.53;;
11541;SDS011;5827;49.482;7.716;2023-03-01T10:06:39;20.90;;;14.60;;
11541;SDS011;5827;49.482;7.716;2023-03-01T10:08:46;25.87;;;14.20;;
11541;SDS011;5827;49.482;7.716;2023-03-01T10:10:54;23.33;;;15.63;;
11541;SDS011;5827;49.482;7.716;2023-03-01T10:12:56;22.13;;;16.03;;
11541;SDS011;5827;49.482;7.716;2023-03-01T10:15:00;22.27;;;15.50;;
11541;SDS011;5827;49.482;7.716;2023-03-01T10:17:08;21.13;;;14.40;;
11541;SDS011;5827;49.482;7.716;2023-03-01T10:19:20;23.43;;;14.90;;
11541;SDS011;5827;49.482;7.716;2023-03-01T10:21:25;22.07;;;15.03;;
11541;SDS011;5827;49.482;7.716;2023-03-01T10:23:31;22.03;;;16.20;;
11541;SDS011;5827;49.482;7.716;2023-03-01T10:25:36;22.60;;;15.03;;
11541;SDS011;5827;49.482;7.716;2023-03-01T10:27:49;23.23;;;15.80;;
11541;SDS011;5827;49.482;7.716;2023-03-01T10:29:55;21.23;;;15.73;;
11541;SDS011;5827;49.482;7.716;2023-03-01T10:32:06;21.17;;;15.63;;
11541;SDS011;5827;49.482;7.716;2023-03-01T10:34:12;22.73;;;15.70;;
11541;SDS011;5827;49.482;7.716;2023-03-01T10:36:15;23.73;;;16.23;;
11541;SDS011;5827;49.482;7.716;2023-03-01T10:38:17;20.40;;;14.93;;
11541;SDS011;5827;49.482;7.716;2023-03-01T10:40:22;20.50;;;15.17;;
11541;SDS011;5827;49.482;7.716;2023-03-01T10:42:25;27.33;;;16.77;;
11541;SDS011;5827;49.482;7.716;2023-03-01T10:44:36;22.37;;;16.07;;
11541;SDS011;5827;49.482;7.716;2023-03-01T10:46:40;21.30;;;15.43;;
11541;SDS011;5827;49.482;7.716;2023-03-01T10:48:41;24.70;;;15.93;;
11541;SDS011;5827;49.482;7.716;2023-03-01T10:50:44;22.73;;;15.37;;
11541;SDS011;5827;49.482;7.716;2023-03-01T10:52:55;23.07;;;16.23;;
11541;SDS011;5827;49.482;7.716;2023-03-01T10:55:01;22.73;;;15.87;;
11541;SDS011;5827;49.482;7.716;2023-03-01T10:57:09;22.53;;;16.17;;
11541;SDS011;5827;49.482;7.716;2023-03-01T10:59:30;20.33;;;14.87;;
11541;SDS011;5827;49.482;7.716;2023-03-01T11:01:33;24.40;;;16.00;;
11541;SDS011;5827;49.482;7.716;2023-03-01T11:03:37;21.93;;;16.00;;
11541;SDS011;5827;49.482;7.716;2023-03-01T11:05:50;22.53;;;15.97;;
11541;SDS011;5827;49.482;7.716;2023-03-01T11:07:54;21.63;;;15.27;;
11541;SDS011;5827;49.482;7.716;2023-03-01T11:09:57;20.50;;;15.07;;
11541;SDS011;5827;49.482;7.716;2023-03-01T11:11:59;22.40;;;16.13;;
11541;SDS011;5827;49.482;7.716;2023-03-01T11:14:04;22.83;;;15.93;;
11541;SDS011;5827;49.482;7.716;2023-03-01T11:16:10;26.20;;;16.50;;
11541;SDS011;5827;49.482;7.716;2023-03-01T11:18:18;21.17;;;15.20;;
11541;SDS011;5827;49.482;7.716;2023-03-01T11:20:25;25.20;;;16.57;;
11541;SDS011;5827;49.482;7.716;2023-03-01T11:22:30;22.57;;;16.17;;
11541;SDS011;5827;49.482;7.716;2023-03-01T11:24:36;22.57;;;16.00;;
11541;SDS011;5827;49.482;7.716;2023-03-01T11:26:42;24.83;;;15.90;;
11541;SDS011;5827;49.482;7.716;2023-03-01T11:28:47;20.27;;;15.53;;
11541;SDS011;5827;49.482;7.716;2023-03-01T11:30:55;20.77;;;15.27;;
11541;SDS011;5827;49.482;7.716;2023-03-01T11:33:03;23.03;;;15.07;;
11541;SDS011;5827;49.482;7.716;2023-03-01T11:35:14;22.97;;;15.30;;
11541;SDS011;5827;49.482;7.716;2023-03-01T11:37:26;21.90;;;15.40;;
11541;SDS011;5827;49.482;7.716;2023-03-01T11:39:34;21.80;;;15.90;;
11541;SDS011;5827;49.482;7.716;2023-03-01T11:41:40;20.67;;;14.93;;
11541;SDS011;5827;49.482;7.716;2023-03-01T11:43:46;21.27;;;15.73;;
11541;SDS011;5827;49.482;7.716;2023-03-01T11:45:58;22.40;;;15.93;;
11541;SDS011;5827;49.482;7.716;2023-03-01T11:48:29;21.80;;;14.13;;
11541;SDS011;5827;49.482;7.716;2023-03-01T11:50:45;23.43;;;16.77;;
11541;SDS011;5827;49.482;7.716;2023-03-01T11:52:53;21.97;;;15.93;;
11541;SDS011;5827;49.482;7.716;2023-03-01T11:55:08;20.97;;;15.17;;
11541;SDS011;5827;49.482;7.716;2023-03-01T11:57:20;21.17;;;15.63;;
11541;SDS011;5827;49.482;7.716;2023-03-01T11:59:38;20.13;;;14.63;;
11541;SDS011;5827;49.482;7.716;2023-03-01T12:01:55;21.77;;;15.87;;
11541;SDS011;5827;49.482;7.716;2023-03-01T12:04:18;25.27;;;16.23;;
11541;SDS011;5827;49.482;7.716;2023-03-01T12:06:48;21.80;;;16.33;;
11541;SDS011;5827;49.482;7.716;2023-03-01T12:09:02;21.60;;;15.20;;
11541;SDS011;5827;49.482;7.716;2023-03-01T12:11:19;23.13;;;15.40;;
11541;SDS011;5827;49.482;7.716;2023-03-01T12:13:37;21.70;;;15.37;;
11541;SDS011;5827;49.482;7.716;2023-03-01T12:16:02;21.67;;;15.53;;
11541;SDS011;5827;49.482;7.716;2023-03-01T12:18:21;19.57;;;14.77;;
11541;SDS011;5827;49.482;7.716;2023-03-01T12:20:32;24.93;;;15.77;;